Impacts METAR Board
IDs:

KNSI - San Nicholas Island, CA, US

Updated at: 2200 UTC 01 Feb 2023
Potential Impact None Slight Moderate High
Time 01/10Z 01/11Z 01/12Z 01/13Z 01/14Z 01/15Z 01/16Z 01/17Z 01/18Z 01/19Z 01/20Z 01/21Z 01/22Z
Temp 49 49 48 54 55 57 59 66
Dewpt 39 38 37 39 41 36 32 41
Altim30.10 30.10 30.10 30.11 30.13 30.14 30.15 30.18 30.19 30.18 30.16 30.14 30.14
VIS 10 10 7 10 10 10 10 10
CIG-- -- -- -- -- -- -- -- -- -- -- -- --
Cover----------CLRCLRCLRCLRFEWFEWFEWFEW
FltCatVFRVFRVFRVFRVFRVFRVFRVFR
WX--------------------------
WDir360102033034030034033034035033010140
WSpd10 8 8 7 9 8 8 11 10 7 6 3 4
WGst-- -- -- -- -- -- -- -- -- -- -- -- --
Raw hourly METARs
KNSI 010953Z AUTO 36010KT A3010 RMK AO2 SLPNO PWINO $
KNSI 011053Z AUTO 01008KT A3010 RMK AO2 SLPNO PWINO $
KNSI 011153Z AUTO 02008KT A3010 RMK AO2 SLPNO 56003 PWINO $
KNSI 011253Z AUTO 33007KT A3011 RMK AO2 SLPNO PWINO $
KNSI 011353Z AUTO 34009KT A3013 RMK AO2 SLPNO PWINO $
KNSI 011453Z 30008KT 10SM CLR 09/04 A3014 RMK AO2 SLPNO T00940039 51012 $
KNSI 011553Z 34008KT 10SM CLR 09/03 A3015 RMK AO2 SLPNO T00940033 $
KNSI 011653Z COR 33011KT 7SM CLR 09/03 A3018 RMK AO2 SLPNO T00890028
KNSI 011753Z COR 34010KT 10SM CLR 12/04 A3019 RMK SLPNO T01220039 10122 20094 53015
KNSI 011853Z 35007KT 10SM FEW280 13/05 A3018 RMK AO2 SLPNO T01280050 $
KNSI 011953Z 33006KT 10SM FEW280 14/02 A3016 RMK AO2 SLPNO T01390022 $
KNSI 012053Z 01003KT 10SM FEW280 15/00 A3014 RMK AO2 SLPNO T01500000 58015 $
KNSI 012153Z 14004KT 10SM FEW280 19/05 A3014 RMK AO2 SLPNO T01890050 $



Page loaded:  22:33 UTC  |   02:33 PM Pacific  |   03:33 PM Mountain  |   04:33 PM Central  |   05:33 PM Eastern

 

ADVISORIES

FORECASTS

FORECASTS

OBSERVATIONS

USER TOOLS

ABOUT US